createdAt,value
2018-08-25T00:02:30.047Z,13.10
2018-08-25T00:05:00.669Z,13.10
2018-08-25T00:07:29.314Z,13.10
2018-08-25T00:09:58.335Z,13.00
2018-08-25T00:12:27.956Z,13.00
2018-08-25T00:14:57.521Z,13.00
2018-08-25T00:17:26.177Z,13.00
2018-08-25T00:19:54.846Z,13.00
2018-08-25T00:22:23.437Z,13.00
2018-08-25T00:24:52.018Z,13.00
2018-08-25T00:27:20.629Z,13.10
2018-08-25T00:29:49.202Z,13.20
2018-08-25T00:32:17.849Z,13.10
2018-08-25T00:34:46.441Z,13.10
2018-08-25T00:37:15.362Z,13.20
2018-08-25T00:39:43.949Z,13.20
2018-08-25T00:42:12.639Z,13.30
2018-08-25T00:44:41.218Z,13.30
2018-08-25T00:47:09.869Z,13.30
2018-08-25T00:49:38.540Z,13.30
2018-08-25T00:52:07.730Z,13.30
2018-08-25T00:54:36.381Z,13.20
2018-08-25T00:57:05.733Z,13.20
2018-08-25T00:59:34.713Z,13.20
2018-08-25T01:02:03.340Z,13.20
2018-08-25T01:04:31.949Z,13.30
2018-08-25T01:07:00.574Z,13.30
2018-08-25T01:09:29.369Z,13.30
2018-08-25T01:11:57.990Z,13.30
2018-08-25T01:14:26.601Z,13.40
2018-08-25T01:16:55.202Z,13.40
2018-08-25T01:19:23.853Z,13.40
2018-08-25T01:21:52.473Z,13.30
2018-08-25T01:24:21.070Z,13.40
2018-08-25T01:26:49.689Z,13.40
2018-08-25T01:29:18.333Z,13.50
2018-08-25T01:31:46.985Z,13.50
2018-08-25T01:34:15.573Z,13.40
2018-08-25T01:36:44.194Z,13.50
2018-08-25T01:39:12.786Z,13.50
2018-08-25T01:41:41.390Z,13.60
2018-08-25T01:44:10.004Z,13.60
2018-08-25T01:46:38.585Z,13.70
2018-08-25T01:49:07.206Z,13.70
2018-08-25T01:51:35.773Z,13.70
2018-08-25T01:54:04.377Z,13.70
2018-08-25T01:56:32.941Z,13.70
2018-08-25T01:59:01.595Z,13.70
2018-08-25T02:01:30.156Z,13.80
2018-08-25T02:03:58.765Z,13.90
2018-08-25T02:06:27.337Z,13.90
2018-08-25T02:08:56.941Z,13.90
2018-08-25T02:11:25.525Z,13.90
2018-08-25T02:13:54.124Z,13.90
2018-08-25T02:16:22.705Z,13.90
2018-08-25T02:18:51.333Z,14.00
2018-08-25T02:21:19.906Z,14.00
2018-08-25T02:23:48.500Z,14.00
2018-08-25T02:26:17.085Z,13.90
2018-08-25T02:28:45.669Z,13.90
2018-08-25T02:31:14.264Z,13.90
2018-08-25T02:33:42.905Z,13.90
2018-08-25T02:36:11.493Z,13.90
2018-08-25T02:38:40.159Z,13.90
2018-08-25T02:41:08.719Z,13.80
2018-08-25T02:43:37.330Z,13.80
2018-08-25T02:46:06.855Z,13.80
2018-08-25T02:48:35.474Z,13.70
2018-08-25T02:51:04.603Z,13.70
2018-08-25T02:53:33.173Z,13.70
2018-08-25T02:56:02.188Z,13.60
2018-08-25T02:58:30.841Z,13.50
2018-08-25T03:00:59.432Z,13.50
2018-08-25T03:03:28.032Z,13.50
2018-08-25T03:05:56.664Z,13.50
2018-08-25T03:08:25.312Z,13.50
2018-08-25T03:10:53.933Z,13.60
2018-08-25T03:13:22.508Z,13.60
2018-08-25T03:15:51.155Z,13.60
2018-08-25T03:18:19.725Z,13.70
2018-08-25T03:20:48.326Z,13.60
2018-08-25T03:23:16.905Z,13.60
2018-08-25T03:25:45.509Z,13.60
2018-08-25T03:28:14.095Z,13.60
2018-08-25T03:30:42.709Z,13.50
2018-08-25T03:33:11.312Z,13.60
2018-08-25T03:35:39.921Z,13.60
2018-08-25T03:38:08.505Z,13.50
2018-08-25T03:40:37.327Z,13.60
2018-08-25T03:43:05.990Z,13.60
2018-08-25T03:45:34.697Z,13.50
2018-08-25T03:48:03.277Z,13.60
2018-08-25T03:50:32.071Z,13.60
2018-08-25T03:53:00.734Z,13.60
2018-08-25T03:55:29.403Z,13.60
2018-08-25T03:57:57.938Z,13.70
2018-08-25T04:00:26.552Z,13.70
2018-08-25T04:02:55.156Z,13.70
2018-08-25T04:05:23.763Z,13.70
2018-08-25T04:07:52.354Z,13.70
2018-08-25T04:10:20.941Z,13.70
2018-08-25T04:12:49.689Z,13.70
2018-08-25T04:15:18.293Z,13.70
2018-08-25T04:17:46.893Z,13.70
2018-08-25T04:20:15.514Z,13.70
2018-08-25T04:22:44.108Z,13.70
2018-08-25T04:25:12.690Z,13.70
2018-08-25T04:27:41.301Z,13.80
2018-08-25T04:30:09.906Z,13.80
2018-08-25T04:32:38.538Z,13.80
2018-08-25T04:35:07.141Z,13.80
2018-08-25T04:37:35.805Z,13.70
2018-08-25T04:40:04.455Z,13.70
2018-08-25T04:42:33.229Z,13.80
2018-08-25T04:45:01.821Z,13.70
2018-08-25T04:47:30.436Z,13.80
2018-08-25T04:49:59.046Z,13.80
2018-08-25T04:52:27.743Z,13.80
2018-08-25T04:54:56.357Z,13.70
2018-08-25T04:57:25.005Z,13.70
2018-08-25T04:59:53.593Z,13.70
2018-08-25T05:02:22.217Z,13.70
2018-08-25T05:04:50.870Z,13.70
2018-08-25T05:07:19.557Z,13.80
2018-08-25T05:09:48.137Z,13.80
2018-08-25T05:12:16.808Z,13.70
2018-08-25T05:14:45.394Z,13.70
2018-08-25T05:17:13.993Z,13.70
2018-08-25T05:19:42.573Z,13.80
2018-08-25T05:22:11.180Z,13.80
2018-08-25T05:24:39.774Z,13.90
2018-08-25T05:27:08.386Z,13.90
2018-08-25T05:29:36.967Z,14.00
2018-08-25T05:32:05.674Z,14.10
2018-08-25T05:34:34.253Z,14.10
2018-08-25T05:37:02.883Z,14.30
2018-08-25T05:39:31.486Z,14.30
2018-08-25T05:42:01.225Z,14.40
2018-08-25T05:44:29.790Z,14.50
2018-08-25T05:46:58.370Z,14.60
2018-08-25T05:49:27.026Z,14.60
2018-08-25T05:51:55.623Z,14.70
2018-08-25T05:54:24.238Z,14.70
2018-08-25T05:56:52.880Z,14.70
2018-08-25T05:59:21.511Z,14.90
2018-08-25T06:01:50.138Z,15.00
2018-08-25T06:04:18.936Z,15.10
2018-08-25T06:06:49.472Z,15.10
2018-08-25T06:09:18.094Z,15.20
2018-08-25T06:11:46.681Z,15.30
2018-08-25T06:14:15.325Z,15.30
2018-08-25T06:16:43.924Z,15.40
2018-08-25T06:19:12.642Z,15.40
2018-08-25T06:21:41.227Z,15.50
2018-08-25T06:24:09.829Z,15.50
2018-08-25T06:26:41.101Z,15.50
2018-08-25T06:29:09.813Z,15.40
2018-08-25T06:31:40.780Z,15.50
2018-08-25T06:34:09.441Z,15.60
2018-08-25T06:36:38.054Z,15.60
2018-08-25T06:39:08.369Z,15.60
2018-08-25T06:41:36.982Z,15.70
2018-08-25T06:44:06.164Z,15.70
2018-08-25T06:46:34.757Z,15.70
2018-08-25T06:49:03.443Z,15.70
2018-08-25T06:51:32.030Z,15.70
2018-08-25T06:54:00.637Z,15.70
2018-08-25T06:56:29.541Z,15.70
2018-08-25T06:58:58.157Z,15.70
2018-08-25T07:01:26.724Z,15.70
2018-08-25T07:03:55.636Z,15.60
2018-08-25T07:06:24.533Z,15.60
2018-08-25T07:08:53.137Z,15.60
2018-08-25T07:11:21.750Z,15.50
2018-08-25T07:13:50.353Z,15.60
2018-08-25T07:16:18.953Z,15.60
2018-08-25T07:18:47.585Z,15.70
2018-08-25T07:21:16.174Z,15.60
2018-08-25T07:23:44.753Z,15.60
2018-08-25T07:26:13.441Z,15.50
2018-08-25T07:28:42.048Z,15.50
2018-08-25T07:31:10.658Z,15.50
2018-08-25T07:33:39.263Z,15.60
2018-08-25T07:36:07.969Z,15.50
2018-08-25T07:38:36.581Z,15.40
2018-08-25T07:41:05.291Z,15.40
2018-08-25T07:43:33.889Z,15.40
2018-08-25T07:46:02.536Z,15.40
2018-08-25T07:48:31.145Z,15.50
2018-08-25T07:50:59.772Z,15.40
2018-08-25T07:53:28.357Z,15.50
2018-08-25T07:55:56.961Z,15.50
2018-08-25T07:58:25.591Z,15.40
2018-08-25T08:00:55.136Z,15.50
2018-08-25T08:03:24.622Z,15.30
2018-08-25T08:05:53.381Z,15.30
2018-08-25T08:08:23.051Z,15.40
2018-08-25T08:10:53.384Z,15.40
2018-08-25T08:13:40.062Z,15.50
2018-08-25T08:16:29.083Z,15.50
2018-08-25T08:18:58.893Z,15.50
2018-08-25T08:21:48.863Z,15.50
2018-08-25T08:24:26.293Z,15.60
2018-08-25T08:27:06.303Z,15.60
2018-08-25T08:32:35.994Z,15.50
2018-08-25T08:35:13.938Z,15.50
2018-08-25T08:38:02.498Z,15.40
2018-08-25T08:40:46.486Z,15.60
2018-08-25T08:43:23.926Z,15.70
2018-08-25T08:46:11.973Z,15.80
2018-08-25T08:48:53.439Z,15.90
2018-08-25T08:54:17.882Z,15.80
2018-08-25T08:56:56.729Z,15.80
2018-08-25T08:59:33.856Z,15.80
2018-08-25T09:02:10.210Z,15.80
2018-08-25T09:04:38.952Z,15.90
2018-08-25T09:07:07.566Z,16.00
2018-08-25T09:09:36.157Z,16.10
2018-08-25T09:12:05.674Z,16.10
2018-08-25T09:14:34.260Z,16.10
2018-08-25T09:17:02.930Z,16.10
2018-08-25T09:19:31.609Z,16.10
2018-08-25T09:22:00.270Z,16.10
2018-08-25T09:24:29.031Z,16.10
2018-08-25T09:27:10.975Z,16.20
2018-08-25T09:29:42.970Z,16.20
2018-08-25T09:32:11.748Z,16.10
2018-08-25T09:34:40.421Z,16.20
2018-08-25T09:37:09.017Z,16.20
2018-08-25T09:39:37.633Z,16.20
2018-08-25T09:42:06.900Z,16.10
2018-08-25T09:44:47.286Z,16.10
2018-08-25T09:48:04.600Z,16.10
2018-08-25T09:50:46.322Z,16.10
2018-08-25T09:56:15.324Z,16.10
2018-08-25T09:58:55.808Z,15.90
2018-08-25T10:01:35.416Z,16.00
2018-08-25T10:04:10.631Z,15.80
2018-08-25T10:06:53.181Z,15.80
2018-08-25T10:09:29.823Z,15.80
2018-08-25T10:12:07.722Z,15.80
2018-08-25T10:14:45.040Z,15.90
2018-08-25T10:17:22.850Z,15.90
2018-08-25T10:19:58.308Z,15.90
2018-08-25T10:22:39.232Z,15.90
2018-08-25T10:25:14.370Z,15.90
2018-08-25T10:27:58.495Z,15.90
2018-08-25T10:30:37.257Z,16.10
2018-08-25T10:33:14.345Z,16.10
2018-08-25T10:35:50.955Z,16.20
2018-08-25T10:38:37.153Z,16.30
2018-08-25T10:41:16.122Z,16.30
2018-08-25T10:46:44.026Z,16.10
2018-08-25T10:49:19.644Z,16.00
2018-08-25T10:51:54.619Z,15.90
2018-08-25T10:54:32.666Z,16.10
2018-08-25T10:57:12.981Z,16.30
2018-08-25T10:59:53.133Z,16.20
2018-08-25T11:02:41.682Z,16.00
2018-08-25T11:05:27.005Z,16.10
2018-08-25T11:08:04.037Z,16.20
2018-08-25T11:10:46.436Z,16.20
2018-08-25T11:13:23.844Z,16.30
2018-08-25T11:16:09.269Z,16.20
2018-08-25T11:18:44.233Z,16.30
2018-08-25T11:21:22.495Z,16.40
2018-08-25T11:23:55.536Z,16.40
2018-08-25T11:26:33.843Z,16.40
2018-08-25T11:29:12.696Z,16.40
2018-08-25T11:31:52.227Z,16.40
2018-08-25T11:34:32.841Z,16.50
2018-08-25T11:37:24.217Z,16.50
2018-08-25T11:40:08.529Z,16.60
2018-08-25T11:42:56.870Z,16.50
2018-08-25T11:45:36.738Z,16.40
2018-08-25T11:48:20.953Z,16.40
2018-08-25T11:50:59.315Z,16.60
2018-08-25T11:53:43.745Z,16.60
2018-08-25T11:56:12.503Z,16.60
2018-08-25T11:58:41.086Z,16.30
2018-08-25T12:01:09.706Z,16.20
2018-08-25T12:03:38.392Z,16.40
2018-08-25T12:06:06.973Z,16.50
2018-08-25T12:08:44.929Z,16.40
2018-08-25T12:11:29.021Z,16.50
2018-08-25T12:14:12.104Z,16.30
2018-08-25T12:16:52.265Z,16.40
2018-08-25T12:19:25.582Z,16.60
2018-08-25T12:22:11.999Z,16.70
2018-08-25T12:24:53.061Z,16.80
2018-08-25T12:27:33.333Z,16.80
2018-08-25T12:30:12.344Z,16.80
2018-08-25T12:32:51.574Z,16.80
2018-08-25T12:35:27.970Z,16.90
2018-08-25T12:38:09.720Z,16.80
2018-08-25T12:40:54.869Z,16.80
2018-08-25T12:43:38.824Z,16.70
2018-08-25T12:49:01.550Z,16.50
2018-08-25T12:51:41.394Z,16.30
2018-08-25T13:13:58.881Z,15.90
2018-08-25T13:16:40.192Z,16.30
2018-08-25T13:19:25.831Z,15.90
2018-08-25T13:22:08.416Z,16.00
2018-08-25T13:24:52.479Z,16.10
2018-08-25T13:27:37.830Z,16.00
2018-08-25T13:33:00.529Z,16.30
2018-08-25T13:35:43.885Z,16.40
2018-08-25T13:41:08.829Z,16.20
2018-08-25T13:43:48.497Z,16.40
2018-08-25T13:46:24.245Z,16.50
2018-08-25T13:49:06.497Z,16.40
2018-08-25T13:51:42.812Z,16.60
2018-08-25T13:54:19.376Z,16.90
2018-08-25T13:56:56.424Z,17.30
2018-08-25T13:59:32.179Z,17.60
2018-08-25T14:02:13.274Z,17.60
2018-08-25T14:04:52.635Z,17.40
2018-08-25T14:07:28.168Z,17.50
2018-08-25T14:10:00.720Z,17.60
2018-08-25T14:12:36.727Z,17.60
2018-08-25T14:15:12.642Z,17.50
2018-08-25T14:17:53.909Z,17.30
2018-08-25T14:23:20.518Z,17.40
2018-08-25T14:26:00.570Z,17.50
2018-08-25T14:28:29.362Z,17.50
2018-08-25T14:30:57.927Z,17.40
2018-08-25T14:33:26.649Z,17.30
2018-08-25T14:35:55.341Z,17.30
2018-08-25T14:38:23.949Z,17.40
2018-08-25T14:40:52.718Z,17.50
2018-08-25T14:43:22.342Z,17.40
2018-08-25T14:45:50.969Z,17.50
2018-08-25T14:48:19.541Z,17.40
2018-08-25T14:50:48.142Z,17.40
2018-08-25T14:53:16.722Z,17.50
2018-08-25T14:55:46.107Z,17.60
2018-08-25T14:58:15.250Z,17.60
2018-08-25T15:00:44.031Z,17.40
2018-08-25T15:03:15.465Z,17.50
2018-08-25T15:05:44.994Z,17.30
2018-08-25T15:08:13.574Z,17.50
2018-08-25T15:10:42.184Z,17.20
2018-08-25T15:13:10.769Z,17.20
2018-08-25T15:15:39.399Z,17.20
2018-08-25T15:18:07.986Z,17.10
2018-08-25T15:20:36.602Z,17.10
2018-08-25T15:23:05.222Z,17.20
2018-08-25T15:25:33.827Z,17.30
2018-08-25T15:28:02.523Z,17.40
2018-08-25T15:30:31.150Z,17.40
2018-08-25T15:32:59.762Z,17.50
2018-08-25T15:35:28.393Z,17.50
2018-08-25T15:37:56.977Z,17.40
2018-08-25T15:40:25.676Z,17.50
2018-08-25T15:42:54.249Z,17.40
2018-08-25T15:45:23.964Z,17.40
2018-08-25T15:47:52.538Z,17.50
2018-08-25T15:50:21.137Z,17.50
2018-08-25T15:52:49.769Z,17.50
2018-08-25T15:55:18.562Z,17.50
2018-08-25T15:57:47.122Z,17.50
2018-08-25T16:00:15.706Z,17.40
2018-08-25T16:02:44.397Z,17.50
2018-08-25T16:05:13.007Z,17.40
2018-08-25T16:07:41.618Z,17.40
2018-08-25T16:10:10.358Z,17.30
2018-08-25T16:12:38.926Z,17.30
2018-08-25T16:15:07.592Z,17.30
2018-08-25T16:17:36.159Z,17.20
2018-08-25T16:20:06.089Z,17.40
2018-08-25T16:22:34.533Z,17.40
2018-08-25T16:25:03.210Z,17.30
2018-08-25T16:27:31.817Z,17.20
2018-08-25T16:30:00.394Z,17.20
2018-08-25T16:32:29.049Z,17.10
2018-08-25T16:34:57.631Z,17.10
2018-08-25T16:37:26.232Z,16.90
2018-08-25T16:39:54.855Z,16.90
2018-08-25T16:42:23.530Z,16.90
2018-08-25T16:44:52.123Z,17.00
2018-08-25T16:47:20.717Z,16.90
2018-08-25T16:49:49.301Z,16.80
2018-08-25T16:52:17.969Z,16.70
2018-08-25T16:54:46.671Z,16.70
2018-08-25T16:57:15.402Z,16.60
2018-08-25T16:59:43.986Z,16.50
2018-08-25T17:02:12.643Z,16.60
2018-08-25T17:04:41.260Z,16.60
2018-08-25T17:07:09.861Z,16.50
2018-08-25T17:09:38.458Z,16.60
2018-08-25T17:12:07.126Z,16.60
2018-08-25T17:14:35.757Z,16.40
2018-08-25T17:17:05.157Z,16.50
2018-08-25T17:19:33.955Z,16.50
2018-08-25T17:22:02.574Z,16.50
2018-08-25T17:24:31.157Z,16.50
2018-08-25T17:27:00.098Z,16.60
2018-08-25T17:29:28.629Z,16.50
2018-08-25T17:31:57.279Z,16.50
2018-08-25T17:34:25.942Z,16.40
2018-08-25T17:36:54.541Z,16.40
2018-08-25T17:39:23.137Z,16.30
2018-08-25T17:41:51.781Z,16.20
2018-08-25T17:44:20.370Z,16.30
2018-08-25T17:46:49.095Z,16.20
2018-08-25T17:49:17.674Z,16.00
2018-08-25T17:51:46.304Z,15.90
2018-08-25T17:54:14.946Z,15.90
2018-08-25T17:56:43.595Z,15.80
2018-08-25T17:59:12.245Z,15.70
2018-08-25T18:01:40.869Z,15.70
2018-08-25T18:04:09.775Z,15.50
2018-08-25T18:06:38.393Z,15.50
2018-08-25T18:09:07.249Z,15.50
2018-08-25T18:11:35.909Z,15.40
2018-08-25T18:14:04.592Z,15.30
2018-08-25T18:16:33.260Z,15.00
2018-08-25T18:19:02.060Z,14.90
2018-08-25T18:21:30.739Z,15.00
2018-08-25T18:23:59.516Z,14.90
2018-08-25T18:26:28.165Z,14.70
2018-08-25T18:28:56.852Z,14.70
2018-08-25T18:31:25.471Z,14.50
2018-08-25T18:33:54.170Z,14.50
2018-08-25T18:36:22.830Z,14.50
2018-08-25T18:38:51.476Z,14.50
2018-08-25T18:41:20.188Z,14.30
2018-08-25T18:43:48.874Z,14.30
2018-08-25T18:46:17.457Z,14.30
2018-08-25T18:48:47.362Z,14.10
2018-08-25T18:51:15.947Z,13.90
2018-08-25T18:53:44.554Z,13.80
2018-08-25T18:56:13.150Z,13.90
2018-08-25T18:58:41.800Z,13.90
2018-08-25T19:01:10.394Z,13.70
2018-08-25T19:03:39.093Z,13.60
2018-08-25T19:06:07.737Z,13.50
2018-08-25T19:08:36.372Z,13.50
2018-08-25T19:11:04.990Z,13.50
2018-08-25T19:13:33.595Z,13.50
2018-08-25T19:16:02.222Z,13.40
2018-08-25T19:18:30.797Z,13.30
2018-08-25T19:20:59.451Z,13.20
2018-08-25T19:23:28.209Z,13.10
2018-08-25T19:25:56.815Z,13.20
2018-08-25T19:28:25.430Z,13.10
2018-08-25T19:30:54.183Z,13.00
2018-08-25T19:33:22.769Z,13.00
2018-08-25T19:35:51.387Z,13.00
2018-08-25T19:38:19.976Z,12.90
2018-08-25T19:40:48.654Z,12.90
2018-08-25T19:43:17.217Z,12.90
2018-08-25T19:45:45.931Z,12.80
2018-08-25T19:48:14.534Z,12.70
2018-08-25T19:50:50.924Z,12.70
2018-08-25T19:53:19.873Z,12.70
2018-08-25T19:55:48.470Z,12.70
2018-08-25T19:58:17.081Z,12.60
2018-08-25T20:00:45.799Z,12.60
2018-08-25T20:03:14.363Z,12.60
2018-08-25T20:05:43.198Z,12.50
2018-08-25T20:08:11.573Z,12.30
2018-08-25T20:10:40.173Z,12.40
2018-08-25T20:13:08.734Z,12.30
2018-08-25T20:15:37.446Z,12.20
2018-08-25T20:18:06.039Z,12.20
2018-08-25T20:20:34.674Z,12.30
2018-08-25T20:23:03.253Z,12.30
2018-08-25T20:25:31.849Z,12.20
2018-08-25T20:28:00.453Z,12.10
2018-08-25T20:30:29.092Z,12.00
2018-08-25T20:32:57.711Z,11.90
2018-08-25T20:35:26.566Z,11.90
2018-08-25T20:37:55.171Z,11.90
2018-08-25T20:40:23.809Z,11.90
2018-08-25T20:42:52.389Z,11.90
2018-08-25T20:45:20.999Z,11.90
2018-08-25T20:47:49.618Z,11.80
2018-08-25T20:50:18.209Z,11.70
2018-08-25T20:52:46.808Z,11.60
2018-08-25T20:55:15.381Z,11.60
2018-08-25T20:57:43.991Z,11.50
2018-08-25T21:00:12.608Z,11.50
2018-08-25T21:02:41.205Z,11.60
2018-08-25T21:05:09.964Z,11.60
2018-08-25T21:07:38.610Z,11.60
2018-08-25T21:10:08.206Z,11.60
2018-08-25T21:12:36.835Z,11.60
2018-08-25T21:15:05.482Z,11.60
2018-08-25T21:17:34.081Z,11.50
2018-08-25T21:20:02.678Z,11.50
2018-08-25T21:22:31.409Z,11.60
2018-08-25T21:24:59.998Z,11.50
2018-08-25T21:27:28.621Z,11.40
2018-08-25T21:29:57.198Z,11.40
2018-08-25T21:32:26.513Z,11.40
2018-08-25T21:34:55.186Z,11.40
2018-08-25T21:37:23.782Z,11.30
2018-08-25T21:39:52.390Z,11.30
2018-08-25T21:42:21.520Z,11.40
2018-08-25T21:44:50.422Z,11.40
2018-08-25T21:47:19.025Z,11.50
2018-08-25T21:49:47.699Z,11.50
2018-08-25T21:52:16.330Z,11.50
2018-08-25T21:54:44.916Z,11.60
2018-08-25T21:57:13.693Z,11.60
2018-08-25T21:59:42.277Z,11.60
2018-08-25T22:02:15.074Z,11.60
2018-08-25T22:04:43.651Z,11.60
2018-08-25T22:07:12.353Z,11.60
2018-08-25T22:09:41.174Z,11.60
2018-08-25T22:12:09.733Z,11.50
2018-08-25T22:14:38.517Z,11.50
2018-08-25T22:17:07.386Z,11.50
2018-08-25T22:19:36.003Z,11.50
2018-08-25T22:22:04.649Z,11.40
2018-08-25T22:24:33.270Z,11.50
2018-08-25T22:27:01.939Z,11.50
2018-08-25T22:29:30.525Z,11.40
2018-08-25T22:31:59.177Z,11.40
2018-08-25T22:34:27.914Z,11.30
2018-08-25T22:36:56.499Z,11.30
2018-08-25T22:39:25.116Z,11.30
2018-08-25T22:41:53.689Z,11.40
2018-08-25T22:44:22.365Z,11.30
2018-08-25T22:46:50.942Z,11.30
2018-08-25T22:49:19.561Z,11.30
2018-08-25T22:51:48.142Z,11.20
2018-08-25T22:54:16.741Z,11.20
2018-08-25T22:56:45.331Z,11.30
2018-08-25T22:59:13.954Z,11.30
2018-08-25T23:01:42.538Z,11.20
2018-08-25T23:04:11.142Z,11.20
2018-08-25T23:06:39.721Z,11.20
2018-08-25T23:09:09.387Z,11.10
2018-08-25T23:11:38.090Z,11.10
2018-08-25T23:14:06.750Z,11.00
2018-08-25T23:16:35.351Z,11.00
2018-08-25T23:19:04.205Z,10.90
2018-08-25T23:21:32.770Z,10.90
2018-08-25T23:24:01.374Z,10.90
2018-08-25T23:26:30.015Z,10.90
2018-08-25T23:28:58.637Z,10.80
2018-08-25T23:31:27.273Z,10.70
2018-08-25T23:33:55.946Z,10.70
2018-08-25T23:36:24.509Z,10.70
2018-08-25T23:38:53.158Z,10.70
2018-08-25T23:41:21.776Z,10.60
2018-08-25T23:43:50.353Z,10.60
2018-08-25T23:46:18.978Z,10.60
2018-08-25T23:48:47.561Z,10.50
2018-08-25T23:51:16.153Z,10.60
2018-08-25T23:53:44.789Z,10.50
2018-08-25T23:56:13.395Z,10.30
2018-08-25T23:58:42.005Z,10.30
